Time;durP1;ratioP1;P1;durP2;ratioP2;P2;SDS_P1;SDS_P2;PMS_P1;PMS_P2;Temp;Humidity;BMP_temperature;BMP_pressure;BME280_temperature;BME280_humidity;BME280_pressure;Samples;Min_cycle;Max_cycle;Signal;HPM_P1;HPM_P2
2023/01/04 00:00:46;;;;;;;;;;;;;;;4.67;85.99;100572.16;5092935;28;19912;-36
2023/01/04 00:03:11;;;;;;;;;;;;;;;4.64;85.96;100579.53;5092818;28;19916;-37
2023/01/04 00:05:37;;;;;;;;;;;;;;;4.56;86.26;100580.25;5092659;28;19919;-37
2023/01/04 00:08:02;;;;;;;;;;;;;;;4.56;85.60;100579.44;5092778;28;19919;-37
2023/01/04 00:10:27;;;;;;;;;;;;;;;4.42;86.02;100581.56;5092748;28;19919;-37
2023/01/04 00:12:53;;;;;;;;;;;;;;;4.36;85.83;100586.53;5092440;28;19912;-37
2023/01/04 00:15:18;;;;;;;;;;;;;;;4.25;86.36;100590.19;5092427;28;19965;-37
2023/01/04 00:17:43;;;;;;;;;;;;;;;4.36;86.93;100590.03;5092284;28;19916;-37
2023/01/04 00:20:09;;;;;;;;;;;;;;;4.45;86.01;100591.78;5092219;28;19924;-37
2023/01/04 00:22:34;;;;;;;;;;;;;;;4.40;86.00;100596.69;5092437;28;20022;-37
2023/01/04 00:25:00;;;;;;;;;;;;;;;4.24;87.00;100596.44;5092290;28;19998;-37
2023/01/04 00:27:25;;;;;;;;;;;;;;;4.40;85.59;100601.09;5091737;28;19992;-37
2023/01/04 00:29:50;;;;;;;;;;;;;;;4.28;86.34;100589.91;5092041;28;19912;-37
2023/01/04 00:32:15;;;;;;;;;;;;;;;4.19;87.15;100598.63;5092323;28;19918;-37
2023/01/04 00:34:41;;;;;;;;;;;;;;;4.23;87.42;100594.78;5092346;28;19912;-37
2023/01/04 00:37:06;;;;;;;;;;;;;;;3.91;87.26;100599.38;5091919;28;20045;-37
2023/01/04 00:39:31;;;;;;;;;;;;;;;3.84;88.45;100600.06;5091749;28;19916;-37
2023/01/04 00:42:03;;;;;;;;;;;;;;;3.90;88.46;100599.50;5091877;28;20443;-37
2023/01/04 00:44:29;;;;;;;;;;;;;;;3.76;88.33;100595.50;5091949;28;19912;-36
2023/01/04 00:46:55;;;;;;;;;;;;;;;3.80;88.36;100603.94;5092070;28;19985;-36
2023/01/04 00:49:20;;;;;;;;;;;;;;;3.80;88.68;100604.78;5091646;28;19973;-36
2023/01/04 00:51:45;;;;;;;;;;;;;;;3.77;88.31;100610.34;5091868;28;19923;-37
2023/01/04 00:54:14;;;;;;;;;;;;;;;3.74;88.07;100605.34;5091688;28;19912;-36
2023/01/04 00:56:40;;;;;;;;;;;;;;;3.77;89.04;100604.22;5091834;28;19916;-37
2023/01/04 00:59:05;;;;;;;;;;;;;;;3.62;89.12;100609.91;5091705;28;19977;-37
2023/01/04 01:01:31;;;;;;;;;;;;;;;3.64;88.85;100615.03;5091628;28;19912;-37
2023/01/04 01:03:59;;;;;;;;;;;;;;;3.73;89.16;100616.81;5091673;28;19912;-37
2023/01/04 01:06:25;;;;;;;;;;;;;;;3.52;89.07;100612.53;5091651;28;20362;-37
2023/01/04 01:08:51;;;;;;;;;;;;;;;3.56;89.46;100620.13;5091621;28;19959;-37
2023/01/04 01:11:16;;;;;;;;;;;;;;;3.44;88.89;100615.00;5091492;28;19951;-36
2023/01/04 01:13:42;;;;;;;;;;;;;;;3.50;89.35;100611.84;5091303;28;20376;-37
2023/01/04 01:16:08;;;;;;;;;;;;;;;3.56;89.55;100614.88;5091457;28;20030;-37
2023/01/04 01:18:34;;;;;;;;;;;;;;;3.35;90.59;100612.34;5091472;28;19928;-37
2023/01/04 01:20:59;;;;;;;;;;;;;;;3.37;89.64;100606.00;5091130;28;19920;-37
2023/01/04 01:23:24;;;;;;;;;;;;;;;3.37;89.29;100606.00;5091049;28;19993;-37
2023/01/04 01:25:50;;;;;;;;;;;;;;;3.46;90.46;100599.88;5091038;28;19912;-37
2023/01/04 01:28:15;;;;;;;;;;;;;;;3.39;87.83;100600.56;5091059;28;19912;-38
2023/01/04 01:30:41;;;;;;;;;;;;;;;3.31;90.34;100607.38;5091236;28;19991;-37
2023/01/04 01:33:07;;;;;;;;;;;;;;;3.44;89.52;100603.63;5091097;28;20368;-37
2023/01/04 01:35:33;;;;;;;;;;;;;;;3.17;89.22;100599.03;5091059;28;19943;-38
2023/01/04 01:37:58;;;;;;;;;;;;;;;3.19;89.45;100602.34;5090420;28;19912;-37
2023/01/04 01:40:23;;;;;;;;;;;;;;;3.40;88.05;100597.81;5090924;28;19917;-37
2023/01/04 01:42:49;;;;;;;;;;;;;;;3.16;88.69;100610.50;5091037;28;19923;-37
2023/01/04 01:45:26;;;;;;;;;;;;;;;3.14;88.53;100602.72;5091027;28;19999;-37
2023/01/04 01:47:54;;;;;;;;;;;;;;;3.20;88.57;100607.47;5091134;28;19912;-38
2023/01/04 01:50:24;;;;;;;;;;;;;;;3.13;88.36;100607.16;5090975;28;20431;-37
2023/01/04 01:52:50;;;;;;;;;;;;;;;3.11;88.90;100601.22;5090973;28;19934;-37
2023/01/04 01:55:16;;;;;;;;;;;;;;;2.92;88.65;100604.59;5091322;28;19969;-38
2023/01/04 01:57:42;;;;;;;;;;;;;;;3.05;88.58;100604.38;5091628;28;19992;-38
2023/01/04 02:00:11;;;;;;;;;;;;;;;2.97;88.63;100598.97;5091457;28;19963;-37
2023/01/04 02:02:38;;;;;;;;;;;;;;;2.99;88.83;100594.41;5091376;28;19912;-37
2023/01/04 02:05:03;;;;;;;;;;;;;;;3.26;87.78;100598.22;5091377;28;20317;-36
2023/01/04 02:07:29;;;;;;;;;;;;;;;3.13;87.65;100598.44;5091272;28;19912;-37
2023/01/04 02:09:55;;;;;;;;;;;;;;;3.33;87.23;100597.53;5091449;28;19912;-36
2023/01/04 02:12:20;;;;;;;;;;;;;;;2.97;87.36;100590.22;5091462;28;19916;-37
2023/01/04 02:14:47;;;;;;;;;;;;;;;2.85;88.79;100594.75;5091259;28;19989;-37
2023/01/04 02:17:17;;;;;;;;;;;;;;;2.89;88.90;100597.00;5091453;28;19938;-36
2023/01/04 02:20:01;;;;;;;;;;;;;;;2.85;89.74;100592.94;5091260;28;19920;-37
2023/01/04 02:22:56;;;;;;;;;;;;;;;2.86;89.66;100596.44;5091419;28;19918;-37
2023/01/04 02:25:40;;;;;;;;;;;;;;;2.84;89.90;100593.09;5091321;28;19916;-37
2023/01/04 02:28:11;;;;;;;;;;;;;;;3.09;90.49;100586.53;5091582;28;19920;-37
2023/01/04 02:30:36;;;;;;;;;;;;;;;2.92;88.31;100588.00;5091761;28;19998;-37
2023/01/04 02:33:25;;;;;;;;;;;;;;;2.73;89.59;100589.59;5091418;28;20327;-37
2023/01/04 02:36:02;;;;;;;;;;;;;;;2.84;91.03;100593.09;5071223;28;19923;-36
2023/01/04 02:38:32;;;;;;;;;;;;;;;2.78;90.46;100552.41;5091362;28;19912;-37
2023/01/04 02:41:00;;;;;;;;;;;;;;;3.01;88.49;100588.97;5091265;28;19916;-37
2023/01/04 02:46:29;;;;;;;;;;;;;;;2.71;90.55;100594.16;5091463;28;19961;-37
2023/01/04 02:51:41;;;;;;;;;;;;;;;2.89;88.77;100590.88;5094947;28;19919;-37
2023/01/04 02:54:09;;;;;;;;;;;;;;;2.94;89.17;100593.97;5094662;28;19912;-37
2023/01/04 02:56:51;;;;;;;;;;;;;;;2.86;89.59;100599.06;5094995;28;20002;-37
2023/01/04 02:59:32;;;;;;;;;;;;;;;2.99;88.38;100599.66;5094809;28;19912;-36
2023/01/04 03:08:00;;;;;;;;;;;;;;;2.71;89.07;100614.34;5094925;28;19923;-37
2023/01/04 03:10:28;;;;;;;;;;;;;;;2.72;89.05;100613.38;5094559;28;19912;-37
2023/01/04 03:12:57;;;;;;;;;;;;;;;2.93;89.10;100613.31;5094341;28;19928;-37
2023/01/04 03:15:24;;;;;;;;;;;;;;;2.96;87.99;100623.59;5094250;28;19912;-37
2023/01/04 03:17:57;;;;;;;;;;;;;;;2.88;88.27;100626.06;5094026;28;19986;-42
2023/01/04 03:20:23;;;;;;;;;;;;;;;2.83;89.50;100623.81;5094154;28;19920;-38
2023/01/04 03:37:03;;;;;;;;;;;;;;;2.90;90.16;100632.00;5094384;28;19954;-37
2023/01/04 03:48:31;;;;;;;;;;;;;;;2.51;88.27;100630.03;5093875;28;19920;-37
2023/01/04 03:51:19;;;;;;;;;;;;;;;2.57;88.31;100643.59;5093546;28;19912;-37
2023/01/04 03:53:48;;;;;;;;;;;;;;;2.55;86.63;100641.09;5087720;28;19970;-37
2023/01/04 03:56:15;;;;;;;;;;;;;;;2.48;86.92;100646.03;5093189;28;20341;-37
2023/01/04 03:58:40;;;;;;;;;;;;;;;2.32;87.33;100645.66;5093676;28;19985;-37
2023/01/04 04:01:06;;;;;;;;;;;;;;;2.44;86.65;100634.13;5093134;28;20042;-37
2023/01/04 04:09:00;;;;;;;;;;;;;;;2.40;85.85;100637.13;5093651;28;20008;-37
2023/01/04 04:11:31;;;;;;;;;;;;;;;2.16;87.07;100638.22;5093239;28;19955;-37
2023/01/04 04:13:58;;;;;;;;;;;;;;;1.97;88.39;100635.44;5093210;28;19918;-38
2023/01/04 04:16:23;;;;;;;;;;;;;;;1.82;88.45;100635.72;5093284;28;20004;-37
2023/01/04 04:18:48;;;;;;;;;;;;;;;1.70;89.01;100642.00;5093181;28;19955;-36
2023/01/04 04:21:14;;;;;;;;;;;;;;;1.75;89.51;100630.16;5093350;28;20306;-37
2023/01/04 04:23:39;;;;;;;;;;;;;;;1.86;88.74;100634.50;5093047;28;20360;-36
2023/01/04 04:26:04;;;;;;;;;;;;;;;1.80;90.53;100634.19;5092969;28;19912;-35
2023/01/04 04:28:30;;;;;;;;;;;;;;;1.89;88.98;100647.41;5092745;28;19916;-36
2023/01/04 04:30:55;;;;;;;;;;;;;;;2.22;87.78;100655.25;5092965;28;19912;-36
2023/01/04 04:33:20;;;;;;;;;;;;;;;1.99;87.76;100644.03;5092954;28;19943;-36
2023/01/04 04:35:49;;;;;;;;;;;;;;;1.77;89.29;100651.00;5092883;28;19912;-36
2023/01/04 04:38:14;;;;;;;;;;;;;;;1.72;89.88;100655.81;5091388;28;20261;-36
2023/01/04 04:43:23;;;;;;;;;;;;;;;1.66;89.30;100653.69;5092984;28;19974;-36
2023/01/04 04:45:48;;;;;;;;;;;;;;;1.81;88.06;100654.22;5092655;28;19912;-36
2023/01/04 04:48:14;;;;;;;;;;;;;;;1.90;87.57;100654.31;5092767;28;19912;-37
2023/01/04 04:50:39;;;;;;;;;;;;;;;1.71;88.80;100660.25;5092568;28;19934;-37
2023/01/04 04:53:04;;;;;;;;;;;;;;;1.81;88.25;100656.84;5092275;28;20363;-37
2023/01/04 04:55:30;;;;;;;;;;;;;;;1.94;87.75;100660.13;5092487;28;19935;-37
2023/01/04 04:57:55;;;;;;;;;;;;;;;1.73;88.81;100652.22;5092287;28;19919;-37
2023/01/04 05:00:20;;;;;;;;;;;;;;;1.83;87.81;100665.44;5092314;28;20034;-37
2023/01/04 05:02:45;;;;;;;;;;;;;;;2.18;87.03;100677.50;5092530;28;19919;-37
2023/01/04 05:05:11;;;;;;;;;;;;;;;1.87;86.88;100672.94;5092411;28;19919;-37
2023/01/04 05:07:36;;;;;;;;;;;;;;;1.62;87.29;100694.22;5092042;28;20197;-36
2023/01/04 05:10:01;;;;;;;;;;;;;;;1.45;88.26;100696.41;5091971;28;19919;-37
2023/01/04 05:15:10;;;;;;;;;;;;;;;1.32;89.23;100698.34;5091594;28;19923;-37
2023/01/04 05:17:35;;;;;;;;;;;;;;;1.55;87.87;100697.34;5091407;28;19920;-37
2023/01/04 05:20:01;;;;;;;;;;;;;;;1.76;86.13;100712.34;5091434;28;19920;-37
2023/01/04 05:22:26;;;;;;;;;;;;;;;1.57;87.19;100702.47;5091418;28;19919;-36
2023/01/04 05:24:52;;;;;;;;;;;;;;;1.33;87.33;100705.25;5091684;28;19912;-36
2023/01/04 05:27:17;;;;;;;;;;;;;;;1.20;87.79;100715.00;5091314;28;20383;-36
2023/01/04 05:32:26;;;;;;;;;;;;;;;1.15;86.48;100718.84;5091439;28;19970;-36
2023/01/04 05:34:51;;;;;;;;;;;;;;;1.60;89.60;100719.75;5091437;28;19912;-37
2023/01/04 05:37:17;;;;;;;;;;;;;;;1.57;87.24;100707.72;5091370;28;19939;-37
2023/01/04 05:39:42;;;;;;;;;;;;;;;1.63;86.39;100709.03;5082666;28;19924;-37
2023/01/04 05:42:26;;;;;;;;;;;;;;;2.41;90.90;100712.38;5070697;28;20299;-37
2023/01/04 05:44:52;;;;;;;;;;;;;;;2.01;85.72;100711.19;5078813;28;19912;-35
2023/01/04 05:47:17;;;;;;;;;;;;;;;1.73;85.28;100723.06;5090285;28;19912;-36
2023/01/04 05:49:42;;;;;;;;;;;;;;;1.71;85.28;100725.84;5089729;28;19991;-36
2023/01/04 05:52:08;;;;;;;;;;;;;;;1.73;84.89;100721.31;5090502;28;19912;-37
2023/01/04 05:54:33;;;;;;;;;;;;;;;1.84;84.67;100720.44;5090300;28;19919;-37
2023/01/04 05:56:58;;;;;;;;;;;;;;;1.88;85.72;100719.22;5088982;28;19954;-36
2023/01/04 05:59:24;;;;;;;;;;;;;;;1.98;84.45;100729.00;5088646;28;19976;-37
2023/01/04 06:01:49;;;;;;;;;;;;;;;1.90;85.59;100740.09;5089383;28;19912;-36
2023/01/04 06:04:14;;;;;;;;;;;;;;;2.11;84.67;100732.28;5090078;28;20067;-37
2023/01/04 06:06:40;;;;;;;;;;;;;;;2.12;84.05;100729.53;5089606;28;20420;-41
2023/01/04 06:09:05;;;;;;;;;;;;;;;1.69;85.76;100740.03;5089693;28;19912;-36
2023/01/04 06:11:30;;;;;;;;;;;;;;;2.12;85.50;100726.91;5094528;28;20364;-42
2023/01/04 06:13:55;;;;;;;;;;;;;;;2.45;83.81;100740.03;5093381;28;19920;-43
2023/01/04 06:16:21;;;;;;;;;;;;;;;2.60;82.07;100738.78;5090139;28;20466;-43
2023/01/04 06:18:46;;;;;;;;;;;;;;;2.81;82.46;100746.66;5090378;28;19928;-42
2023/01/04 06:21:11;;;;;;;;;;;;;;;3.13;81.08;100749.19;5090232;28;19916;-42
2023/01/04 06:23:36;;;;;;;;;;;;;;;3.41;80.83;100743.38;5090511;28;19998;-43
2023/01/04 06:26:02;;;;;;;;;;;;;;;3.49;79.60;100751.44;5093690;28;19912;-42
2023/01/04 06:28:28;;;;;;;;;;;;;;;3.33;80.17;100757.19;5093626;28;19912;-43
2023/01/04 06:30:53;;;;;;;;;;;;;;;3.72;78.42;100763.44;5092897;28;20006;-43
2023/01/04 06:33:18;;;;;;;;;;;;;;;3.69;77.72;100762.88;5092927;28;19990;-43
2023/01/04 06:35:44;;;;;;;;;;;;;;;3.60;79.07;100769.78;5092927;28;19912;-42
2023/01/04 06:38:09;;;;;;;;;;;;;;;3.81;78.85;100763.59;5092740;28;19912;-42
2023/01/04 06:40:34;;;;;;;;;;;;;;;3.82;78.82;100773.16;5092877;28;19916;-42
2023/01/04 06:43:00;;;;;;;;;;;;;;;3.92;79.15;100772.22;5093551;28;19938;-42
2023/01/04 06:45:26;;;;;;;;;;;;;;;4.40;77.12;100770.63;5093700;28;19977;-43
2023/01/04 06:47:51;;;;;;;;;;;;;;;4.66;76.26;100772.69;5094008;28;20366;-43
2023/01/04 06:50:16;;;;;;;;;;;;;;;4.64;76.02;100774.66;5094254;28;19912;-44
2023/01/04 06:52:42;;;;;;;;;;;;;;;4.54;76.98;100784.38;5093744;28;20340;-43
2023/01/04 06:55:08;;;;;;;;;;;;;;;4.26;78.08;100750.78;5093800;28;19912;-41
2023/01/04 06:57:33;;;;;;;;;;;;;;;4.64;77.03;100796.56;5093946;28;19924;-43
2023/01/04 06:59:59;;;;;;;;;;;;;;;4.59;77.07;100788.25;5094072;28;20303;-43
2023/01/04 07:02:25;;;;;;;;;;;;;;;4.77;77.16;100787.56;5093585;28;20235;-43
2023/01/04 07:04:50;;;;;;;;;;;;;;;4.80;76.36;100789.91;5093625;28;19916;-41
2023/01/04 07:07:16;;;;;;;;;;;;;;;5.11;74.77;100789.72;5093785;28;20318;-43
2023/01/04 07:09:41;;;;;;;;;;;;;;;4.88;75.53;100782.94;5093764;28;20002;-42
2023/01/04 07:12:06;;;;;;;;;;;;;;;5.01;75.02;100787.94;5093540;28;19912;-44
2023/01/04 07:14:31;;;;;;;;;;;;;;;5.99;72.38;100774.38;5093480;28;19912;-42
2023/01/04 07:16:57;;;;;;;;;;;;;;;6.71;70.45;100775.22;5093555;28;19939;-44
2023/01/04 07:19:22;;;;;;;;;;;;;;;7.43;67.75;100785.66;5092782;28;19935;-44
2023/01/04 07:21:47;;;;;;;;;;;;;;;8.05;65.05;100785.38;5093363;28;20425;-43
2023/01/04 07:24:13;;;;;;;;;;;;;;;8.84;63.40;100779.72;5093724;28;19995;-43
2023/01/04 07:26:38;;;;;;;;;;;;;;;9.51;60.65;100787.41;5093480;28;20426;-43
2023/01/04 07:29:18;;;;;;;;;;;;;;;9.89;58.72;100792.91;5093042;28;19958;-43
2023/01/04 07:31:47;;;;;;;;;;;;;;;8.99;61.26;100786.84;5093232;28;20346;-42
2023/01/04 07:34:13;;;;;;;;;;;;;;;8.49;64.28;100787.84;5093374;28;19916;-43
2023/01/04 07:36:39;;;;;;;;;;;;;;;8.36;65.67;100788.28;5092530;28;19965;-43
2023/01/04 07:39:05;;;;;;;;;;;;;;;9.29;63.30;100789.78;5093195;28;20399;-43
2023/01/04 07:41:30;;;;;;;;;;;;;;;9.43;61.44;100788.25;5092963;28;19920;-43
2023/01/04 07:43:56;;;;;;;;;;;;;;;9.18;63.70;100790.16;5093164;28;19920;-42
2023/01/04 07:46:21;;;;;;;;;;;;;;;8.78;64.36;100787.34;5093205;28;19978;-42
2023/01/04 07:48:46;;;;;;;;;;;;;;;9.57;63.28;100797.34;5093167;28;19916;-42
2023/01/04 07:51:11;;;;;;;;;;;;;;;9.27;63.97;100802.41;5092885;28;19912;-42
2023/01/04 07:53:37;;;;;;;;;;;;;;;9.14;62.89;100799.44;5093143;28;19919;-42
2023/01/04 07:56:02;;;;;;;;;;;;;;;10.11;60.84;100793.94;5093123;28;20395;-43
2023/01/04 07:58:31;;;;;;;;;;;;;;;10.68;58.28;100795.44;5092666;28;19921;-42
2023/01/04 08:01:04;;;;;;;;;;;;;;;11.26;56.76;100796.56;5092739;28;19912;-43
2023/01/04 08:03:29;;;;;;;;;;;;;;;10.76;60.38;100798.88;5092902;28;19923;-43
2023/01/04 08:05:54;;;;;;;;;;;;;;;10.29;60.84;100796.34;5092879;28;19913;-42
2023/01/04 08:08:20;;;;;;;;;;;;;;;10.97;58.89;100800.03;5092602;28;20331;-44
2023/01/04 08:10:45;;;;;;;;;;;;;;;11.96;58.52;100799.00;5092859;28;19912;-44
2023/01/04 08:13:10;;;;;;;;;;;;;;;12.20;54.86;100813.81;5092830;28;20339;-43
2023/01/04 08:15:35;;;;;;;;;;;;;;;11.42;56.78;100810.75;5092462;28;19912;-42
2023/01/04 08:18:01;;;;;;;;;;;;;;;11.66;63.00;100802.47;5092175;28;20362;-43
2023/01/04 08:20:26;;;;;;;;;;;;;;;11.97;63.81;100800.63;5092353;28;19985;-43
2023/01/04 08:22:51;;;;;;;;;;;;;;;11.02;59.57;100810.13;5092484;28;19912;-42
2023/01/04 08:25:17;;;;;;;;;;;;;;;11.86;66.62;100815.22;5092341;28;20015;-42
2023/01/04 08:27:42;;;;;;;;;;;;;;;12.30;57.34;100811.69;5092402;28;20417;-42
2023/01/04 08:30:08;;;;;;;;;;;;;;;12.07;56.27;100799.34;5092509;28;19999;-43
2023/01/04 08:32:33;;;;;;;;;;;;;;;11.97;56.96;100806.78;5092298;28;20355;-42
2023/01/04 08:34:58;;;;;;;;;;;;;;;11.79;58.54;100801.81;5092203;28;19912;-42
2023/01/04 08:37:23;;;;;;;;;;;;;;;12.15;56.99;100798.41;5092049;28;19912;-43
2023/01/04 08:39:49;;;;;;;;;;;;;;;12.11;56.88;100797.13;5091986;28;19939;-43
2023/01/04 08:42:14;;;;;;;;;;;;;;;12.63;55.66;100795.19;5092645;28;19912;-43
2023/01/04 08:44:39;;;;;;;;;;;;;;;13.64;53.88;100790.38;5092766;28;19912;-43
2023/01/04 08:47:05;;;;;;;;;;;;;;;12.98;54.22;100790.75;5092012;28;19911;-43
2023/01/04 08:49:30;;;;;;;;;;;;;;;12.92;54.31;100786.19;5091902;28;19927;-43
2023/01/04 08:51:55;;;;;;;;;;;;;;;13.61;53.87;100784.59;5091861;28;19938;-42
2023/01/04 08:54:21;;;;;;;;;;;;;;;14.00;52.32;100791.97;5092011;28;19916;-44
2023/01/04 08:56:47;;;;;;;;;;;;;;;14.55;51.54;100788.41;5091656;28;20292;-43
2023/01/04 08:59:12;;;;;;;;;;;;;;;14.68;51.58;100793.81;5091507;28;20372;-43
2023/01/04 09:01:38;;;;;;;;;;;;;;;14.64;50.52;100784.53;5091468;28;19920;-44
2023/01/04 09:04:03;;;;;;;;;;;;;;;15.19;49.33;100771.75;5092003;28;19912;-44
2023/01/04 09:06:28;;;;;;;;;;;;;;;15.30;49.01;100777.50;5091385;28;20340;-44
2023/01/04 09:08:54;;;;;;;;;;;;;;;15.86;47.85;100773.41;5091567;28;20366;-43
2023/01/04 09:11:20;;;;;;;;;;;;;;;16.01;47.12;100768.59;5091408;28;19912;-44
2023/01/04 09:13:46;;;;;;;;;;;;;;;16.23;47.03;100763.72;5091910;28;20015;-44
2023/01/04 09:16:12;;;;;;;;;;;;;;;16.45;47.04;100769.59;5091353;28;19912;-44
2023/01/04 09:18:38;;;;;;;;;;;;;;;15.80;47.62;100767.03;5091509;28;19925;-43
2023/01/04 09:21:10;;;;;;;;;;;;;;;15.24;50.10;100765.75;5091402;28;19923;-43
2023/01/04 09:23:36;;;;;;;;;;;;;;;15.90;48.27;100762.06;5091040;28;19958;-44
2023/01/04 09:26:05;;;;;;;;;;;;;;;16.02;48.22;100760.31;5091040;28;19947;-44
2023/01/04 09:28:30;;;;;;;;;;;;;;;16.08;47.99;100749.78;5091101;28;19916;-43
2023/01/04 09:30:56;;;;;;;;;;;;;;;16.15;49.10;100747.88;5091239;28;19912;-43
2023/01/04 09:33:21;;;;;;;;;;;;;;;16.83;48.27;100746.38;5091476;28;20425;-44
2023/01/04 09:35:46;;;;;;;;;;;;;;;17.07;46.87;100740.13;5091040;28;19912;-43
2023/01/04 09:38:12;;;;;;;;;;;;;;;16.82;47.47;100742.88;5090900;28;19912;-43
2023/01/04 09:41:00;;;;;;;;;;;;;;;16.97;47.90;100732.59;5090940;28;19930;-45
2023/01/04 09:43:29;;;;;;;;;;;;;;;17.04;48.46;100726.31;5087524;28;20008;-44
2023/01/04 09:45:56;;;;;;;;;;;;;;;16.87;48.57;100723.38;5091151;28;19912;-43
2023/01/04 09:48:25;;;;;;;;;;;;;;;17.39;49.03;100718.50;5091020;28;19916;-43
2023/01/04 09:50:59;;;;;;;;;;;;;;;16.42;51.52;100717.09;5089617;28;19916;-44
2023/01/04 09:53:30;;;;;;;;;;;;;;;16.88;50.18;100714.28;5090808;28;20354;-43
2023/01/04 09:55:57;;;;;;;;;;;;;;;16.74;50.17;100714.38;5091020;28;19912;-44
2023/01/04 09:58:29;;;;;;;;;;;;;;;16.45;50.86;100712.34;5090843;28;20050;-44
2023/01/04 10:01:03;;;;;;;;;;;;;;;17.10;49.45;100703.94;5094345;28;20391;-44
2023/01/04 10:03:30;;;;;;;;;;;;;;;16.99;48.91;100705.50;5094686;28;20440;-43
2023/01/04 10:05:55;;;;;;;;;;;;;;;16.74;49.52;100692.88;5095226;28;19912;-43
2023/01/04 10:08:21;;;;;;;;;;;;;;;16.81;49.74;100700.84;5095068;28;19923;-43
2023/01/04 10:10:58;;;;;;;;;;;;;;;17.34;49.30;100694.97;5095106;28;19962;-42
2023/01/04 10:13:29;;;;;;;;;;;;;;;17.39;48.72;100692.41;5094638;28;20398;-43
2023/01/04 10:16:01;;;;;;;;;;;;;;;17.52;48.42;100696.81;5094626;28;19916;-43
2023/01/04 10:18:36;;;;;;;;;;;;;;;16.99;49.14;100692.84;5094581;28;19920;-43
2023/01/04 10:21:16;;;;;;;;;;;;;;;18.08;47.41;100691.31;5094785;28;19924;-42
2023/01/04 10:24:02;;;;;;;;;;;;;;;17.34;48.86;100689.59;5094886;28;20432;-43
2023/01/04 10:26:33;;;;;;;;;;;;;;;17.78;47.12;100681.34;5094468;28;20448;-44
2023/01/04 10:29:17;;;;;;;;;;;;;;;17.19;48.87;100689.13;5094408;28;20395;-42
2023/01/04 10:31:46;;;;;;;;;;;;;;;17.43;48.37;100684.72;5094234;28;19916;-45
2023/01/04 10:34:21;;;;;;;;;;;;;;;17.52;47.96;100683.38;5094537;28;19912;-43
2023/01/04 10:36:47;;;;;;;;;;;;;;;17.77;47.21;100682.41;5094203;28;19916;-44
2023/01/04 10:39:14;;;;;;;;;;;;;;;18.31;45.94;100677.09;5093793;28;19912;-42
2023/01/04 10:41:44;;;;;;;;;;;;;;;18.48;45.97;100685.31;5093830;28;19920;-43
2023/01/04 10:44:19;;;;;;;;;;;;;;;17.85;46.63;100679.44;5094381;28;19971;-43
2023/01/04 10:46:56;;;;;;;;;;;;;;;17.91;47.03;100680.38;5094237;28;19969;-44
2023/01/04 10:49:32;;;;;;;;;;;;;;;18.02;47.16;100676.09;5093613;28;19920;-44
2023/01/04 10:51:57;;;;;;;;;;;;;;;18.01;46.93;100672.59;5093880;28;19955;-42
2023/01/04 10:54:22;;;;;;;;;;;;;;;18.27;45.81;100668.66;5094087;28;19919;-43
2023/01/04 10:56:56;;;;;;;;;;;;;;;18.72;45.61;100654.63;5093767;28;19912;-44
2023/01/04 10:59:33;;;;;;;;;;;;;;;18.91;44.63;100654.53;5094110;28;20352;-45
2023/01/04 11:01:59;;;;;;;;;;;;;;;18.80;44.33;100649.94;5094013;28;20380;-43
2023/01/04 11:04:29;;;;;;;;;;;;;;;17.48;47.25;100652.56;5092919;28;19938;-43
2023/01/04 11:07:00;;;;;;;;;;;;;;;18.03;45.56;100658.88;5096773;28;19923;-43
2023/01/04 11:09:29;;;;;;;;;;;;;;;18.12;45.27;100657.50;5100121;28;19920;-43
2023/01/04 11:11:55;;;;;;;;;;;;;;;17.67;46.50;100653.38;5090875;28;19917;-42
2023/01/04 11:14:21;;;;;;;;;;;;;;;17.31;46.78;100646.19;5074326;28;20058;-43
2023/01/04 11:16:49;;;;;;;;;;;;;;;17.56;46.46;100659.50;5073485;28;19962;-44
2023/01/04 11:19:14;;;;;;;;;;;;;;;18.03;45.58;100648.09;5073656;28;20023;-43
2023/01/04 11:21:49;;;;;;;;;;;;;;;17.51;45.97;100653.97;5072670;28;20109;-43
2023/01/04 11:24:15;;;;;;;;;;;;;;;17.30;47.13;100650.72;5073215;28;19918;-44
2023/01/04 11:26:42;;;;;;;;;;;;;;;17.76;45.41;100645.78;5071085;28;19913;-43
2023/01/04 11:29:23;;;;;;;;;;;;;;;17.78;45.33;100659.81;5071114;28;20324;-42
2023/01/04 11:31:52;;;;;;;;;;;;;;;17.19;46.18;100646.94;5086872;28;19913;-43
2023/01/04 11:34:17;;;;;;;;;;;;;;;17.29;46.69;100646.41;5091314;28;19919;-42
2023/01/04 11:36:43;;;;;;;;;;;;;;;18.29;45.06;100644.97;5091997;28;19912;-43
2023/01/04 11:39:19;;;;;;;;;;;;;;;18.61;44.15;100644.66;5091714;28;19912;-43
2023/01/04 11:42:05;;;;;;;;;;;;;;;18.14;44.56;100650.00;5092479;28;20008;-44
2023/01/04 11:44:31;;;;;;;;;;;;;;;17.58;46.42;100654.72;5092415;28;19912;-43
2023/01/04 11:47:09;;;;;;;;;;;;;;;18.08;45.70;100645.53;5092230;28;19912;-40
2023/01/04 11:49:35;;;;;;;;;;;;;;;17.94;44.92;100645.75;5092792;28;19958;-42
2023/01/04 11:52:00;;;;;;;;;;;;;;;17.37;46.27;100640.69;5092649;28;20004;-42
2023/01/04 11:54:26;;;;;;;;;;;;;;;18.10;44.74;100643.44;5092876;28;19912;-44
2023/01/04 11:56:58;;;;;;;;;;;;;;;18.14;44.46;100647.31;5092472;28;19912;-45
2023/01/04 11:59:23;;;;;;;;;;;;;;;17.97;44.71;100637.22;5089893;28;19916;-44
2023/01/04 12:01:50;;;;;;;;;;;;;;;18.48;43.50;100640.31;5093033;28;20284;-43
2023/01/04 12:04:19;;;;;;;;;;;;;;;17.84;44.62;100642.81;5092324;28;20378;-43
2023/01/04 12:06:44;;;;;;;;;;;;;;;17.59;45.56;100641.03;5092855;28;19962;-43
2023/01/04 12:09:14;;;;;;;;;;;;;;;17.57;45.58;100653.06;5092555;28;19916;-43
2023/01/04 12:11:41;;;;;;;;;;;;;;;17.76;45.58;100651.16;5092749;28;19981;-41
2023/01/04 12:14:23;;;;;;;;;;;;;;;17.97;45.10;100644.44;5092665;28;19934;-43
2023/01/04 12:16:58;;;;;;;;;;;;;;;18.17;45.03;100649.53;5092344;28;19948;-44
2023/01/04 12:19:24;;;;;;;;;;;;;;;18.43;44.26;100633.97;5091384;28;19924;-42
2023/01/04 12:21:54;;;;;;;;;;;;;;;18.50;43.87;100632.81;5092214;28;20003;-41
2023/01/04 12:24:21;;;;;;;;;;;;;;;17.56;45.88;100641.50;5092363;28;19937;-42
2023/01/04 12:26:47;;;;;;;;;;;;;;;17.11;47.61;100647.22;5092159;28;20401;-42
2023/01/04 12:29:22;;;;;;;;;;;;;;;17.44;46.59;100640.63;5092337;28;20333;-42
2023/01/04 12:31:59;;;;;;;;;;;;;;;18.10;45.09;100640.75;5092225;28;19919;-43
2023/01/04 12:34:26;;;;;;;;;;;;;;;18.22;44.72;100641.59;5091831;28;20279;-42
2023/01/04 12:36:56;;;;;;;;;;;;;;;17.69;44.94;100643.19;5092254;28;20359;-42
2023/01/04 12:39:21;;;;;;;;;;;;;;;17.24;46.71;100643.56;5092353;28;19955;-42
2023/01/04 12:42:03;;;;;;;;;;;;;;;17.71;45.85;100637.56;5091759;28;19958;-41
2023/01/04 12:44:46;;;;;;;;;;;;;;;18.02;44.57;100641.09;5092455;28;20007;-42
2023/01/04 12:50:00;;;;;;;;;;;;;;;17.07;46.86;100639.84;5091881;28;19919;-43
2023/01/04 12:52:25;;;;;;;;;;;;;;;17.66;45.18;100637.44;5092024;28;19912;-42
2023/01/04 12:54:56;;;;;;;;;;;;;;;18.07;44.39;100636.66;5092192;28;19920;-43
2023/01/04 12:57:29;;;;;;;;;;;;;;;17.27;46.36;100631.50;5091937;28;19922;-41
2023/01/04 13:00:05;;;;;;;;;;;;;;;16.50;47.23;100631.91;5091679;28;19923;-43
2023/01/04 13:02:35;;;;;;;;;;;;;;;17.37;46.33;100635.31;5092186;28;19919;-41
2023/01/04 13:05:13;;;;;;;;;;;;;;;17.54;45.26;100643.59;5091932;28;20413;-42
2023/01/04 13:07:41;;;;;;;;;;;;;;;17.15;46.04;100645.75;5092058;28;19918;-42
2023/01/04 13:10:29;;;;;;;;;;;;;;;16.59;46.82;100638.66;5091512;28;20311;-41
2023/01/04 13:13:07;;;;;;;;;;;;;;;17.09;45.68;100652.00;5085559;28;20000;-41
2023/01/04 13:15:44;;;;;;;;;;;;;;;17.55;44.34;100650.63;5091471;28;20276;-41
2023/01/04 13:18:28;;;;;;;;;;;;;;;16.98;45.92;100642.00;5091455;28;19964;-43
2023/01/04 13:20:54;;;;;;;;;;;;;;;17.32;45.11;100648.63;5091473;28;19920;-42
2023/01/04 13:23:20;;;;;;;;;;;;;;;17.27;45.52;100644.97;5091412;28;19971;-43
2023/01/04 13:25:45;;;;;;;;;;;;;;;17.06;45.81;100647.09;5091593;28;19912;-43
2023/01/04 13:28:15;;;;;;;;;;;;;;;17.62;44.84;100655.91;5091123;28;19977;-42
2023/01/04 13:30:41;;;;;;;;;;;;;;;17.04;46.08;100649.19;5091229;28;19916;-42
2023/01/04 13:33:13;;;;;;;;;;;;;;;16.82;45.74;100648.78;5091131;28;20440;-44
2023/01/04 13:35:38;;;;;;;;;;;;;;;17.73;44.44;100654.31;5090191;28;19916;-42
2023/01/04 13:38:10;;;;;;;;;;;;;;;17.95;43.70;100655.47;5091065;28;20011;-42